createdAt,value
2023-05-23T00:00:36.510Z,99090.28
2023-05-23T00:03:07.512Z,99093.16
2023-05-23T00:05:38.641Z,99087.38
2023-05-23T00:08:09.544Z,99092.56
2023-05-23T00:10:41.425Z,99081.81
2023-05-23T00:13:12.544Z,99100.25
2023-05-23T00:15:43.027Z,99094.56
2023-05-23T00:18:15.393Z,99087.13
2023-05-23T00:20:47.126Z,99097.13
2023-05-23T00:23:21.020Z,99097.06
2023-05-23T00:25:53.159Z,99094.16
2023-05-23T00:28:24.480Z,99094.47
2023-05-23T00:31:02.670Z,99078.81
2023-05-23T00:33:35.044Z,99086.06
2023-05-23T00:36:10.706Z,99079.22
2023-05-23T00:38:40.408Z,99087.59
2023-05-23T00:41:12.201Z,99086.94
2023-05-23T00:43:43.018Z,99089.25
2023-05-23T00:46:17.272Z,99090.69
2023-05-23T00:48:49.762Z,99087.34
2023-05-23T00:51:29.307Z,99091.94
2023-05-23T00:54:04.348Z,99098.63
2023-05-23T00:56:33.282Z,99087.16
2023-05-23T00:59:05.178Z,99098.84
2023-05-23T01:01:45.305Z,99089.13
2023-05-23T01:04:17.091Z,99083.91
2023-05-23T01:06:49.412Z,99088.66
2023-05-23T01:09:23.618Z,99080.09
2023-05-23T01:12:11.525Z,99079.91
2023-05-23T01:14:50.905Z,99074.16
2023-05-23T01:17:25.659Z,99081.41
2023-05-23T01:20:02.970Z,99081.22
2023-05-23T01:23:11.198Z,99075.22
2023-05-23T01:26:00.209Z,99085.41
2023-05-23T01:28:47.570Z,99074.81
2023-05-23T01:31:19.932Z,99074.84
2023-05-23T01:33:56.550Z,99071.50
2023-05-23T01:36:27.054Z,99071.91
2023-05-23T01:38:59.218Z,99072.53
2023-05-23T01:41:35.092Z,99068.38
2023-05-23T01:44:12.406Z,99069.22
2023-05-23T01:46:49.921Z,99067.72
2023-05-23T01:49:20.953Z,99058.41
2023-05-23T01:51:51.442Z,99054.22
2023-05-23T01:54:23.039Z,99053.41
2023-05-23T01:56:54.619Z,99050.25
2023-05-23T01:59:31.147Z,99049.84
2023-05-23T02:02:01.277Z,99057.34
2023-05-23T02:04:34.596Z,99052.56
2023-05-23T02:07:04.207Z,99052.41
2023-05-23T02:09:34.487Z,99058.41
2023-05-23T02:12:05.871Z,99052.97
2023-05-23T02:14:39.851Z,99047.34
2023-05-23T02:17:13.261Z,99053.59
2023-05-23T02:19:43.924Z,99050.06
2023-05-23T02:22:13.118Z,99049.03
2023-05-23T02:24:41.773Z,99045.91
2023-05-23T02:27:20.785Z,99054.00
2023-05-23T02:29:50.665Z,99044.25
2023-05-23T02:32:21.315Z,99045.06
2023-05-23T02:34:50.464Z,99027.59
2023-05-23T02:37:22.264Z,99032.38
2023-05-23T02:39:51.359Z,99041.97
2023-05-23T02:42:31.095Z,99039.25
2023-05-23T02:45:05.800Z,99032.81
2023-05-23T02:47:33.963Z,99044.22
2023-05-23T02:50:05.199Z,99040.28
2023-05-23T02:52:48.733Z,99034.03
2023-05-23T02:55:18.462Z,99038.41
2023-05-23T02:57:59.997Z,99037.81
2023-05-23T03:00:48.714Z,99040.50
2023-05-23T03:03:20.420Z,99039.91
2023-05-23T03:05:51.700Z,99040.94
2023-05-23T03:08:21.458Z,99043.63
2023-05-23T03:10:50.495Z,99032.19
2023-05-23T03:13:26.518Z,99035.28
2023-05-23T03:16:02.529Z,99035.28
2023-05-23T03:18:31.950Z,99040.09
2023-05-23T03:21:02.619Z,99044.03
2023-05-23T03:23:32.863Z,99045.88
2023-05-23T03:26:09.081Z,99038.44
2023-05-23T03:28:41.049Z,99035.31
2023-05-23T03:31:19.533Z,99041.94
2023-05-23T03:34:01.613Z,99039.91
2023-05-23T03:36:39.793Z,99047.53
2023-05-23T03:39:10.961Z,99052.75
2023-05-23T03:41:52.034Z,99052.97
2023-05-23T03:44:21.594Z,99058.97
2023-05-23T03:46:56.016Z,99063.34
2023-05-23T03:49:26.820Z,99060.03
2023-05-23T03:51:56.897Z,99064.00
2023-05-23T03:54:32.872Z,99071.25
2023-05-23T03:57:03.149Z,99063.47
2023-05-23T03:59:34.177Z,99067.84
2023-05-23T04:02:19.000Z,99063.94
2023-05-23T04:04:51.733Z,99067.25
2023-05-23T04:07:26.655Z,99059.28
2023-05-23T04:09:57.788Z,99057.81
2023-05-23T04:12:26.784Z,99066.38
2023-05-23T04:14:59.505Z,99072.72
2023-05-23T04:17:41.068Z,99078.97
2023-05-23T04:20:14.014Z,99064.59
2023-05-23T04:22:51.053Z,99067.53
2023-05-23T04:25:24.793Z,99070.16
2023-05-23T04:28:13.883Z,99063.94
2023-05-23T04:30:42.821Z,99059.81
2023-05-23T04:33:30.492Z,99061.47
2023-05-23T04:36:02.337Z,99064.56
2023-05-23T04:38:34.368Z,99068.28
2023-05-23T04:41:06.396Z,99062.34
2023-05-23T04:44:13.068Z,99074.38
2023-05-23T04:46:50.394Z,99072.53
2023-05-23T04:49:57.274Z,99066.28
2023-05-23T04:52:31.796Z,99070.84
2023-05-23T04:55:10.137Z,99067.97
2023-05-23T04:57:42.978Z,99066.50
2023-05-23T05:00:17.892Z,99075.22
2023-05-23T05:02:47.651Z,99064.41
2023-05-23T05:05:24.352Z,99068.78
2023-05-23T05:07:53.995Z,99076.69
2023-05-23T05:10:24.111Z,99069.84
2023-05-23T05:12:52.753Z,99068.16
2023-05-23T05:15:27.312Z,99062.16
2023-05-23T05:18:06.919Z,99064.03
2023-05-23T05:20:48.907Z,99066.72
2023-05-23T05:26:07.664Z,99073.75
2023-05-23T05:28:36.846Z,99080.66
2023-05-23T05:31:10.404Z,99075.03
2023-05-23T05:33:42.150Z,99083.34
2023-05-23T05:36:24.520Z,99084.38
2023-05-23T05:38:56.105Z,99077.31
2023-05-23T05:41:27.365Z,99081.16
2023-05-23T05:44:01.442Z,99081.84
2023-05-23T05:46:32.487Z,99079.56
2023-05-23T05:49:03.077Z,99079.31
2023-05-23T05:51:33.239Z,99081.38
2023-05-23T05:54:07.404Z,99074.69
2023-05-23T05:56:35.667Z,99076.16
2023-05-23T05:59:11.055Z,99073.84
2023-05-23T06:01:45.037Z,99074.44
2023-05-23T06:04:19.322Z,99067.13
2023-05-23T06:07:10.835Z,99061.03
2023-05-23T06:09:41.268Z,99072.81
2023-05-23T06:12:09.727Z,99070.69
2023-05-23T06:14:37.732Z,99065.81
2023-05-23T06:17:08.925Z,99075.56
2023-05-23T06:19:46.712Z,99073.66
2023-05-23T06:22:24.407Z,99065.69
2023-05-23T06:24:53.019Z,99068.38
2023-05-23T06:27:23.456Z,99064.13
2023-05-23T06:29:54.301Z,99056.56
2023-05-23T06:32:25.791Z,99066.78
2023-05-23T06:34:57.416Z,99071.56
2023-05-23T06:37:26.846Z,99069.28
2023-05-23T06:40:04.218Z,99069.47
2023-05-23T06:42:35.475Z,99073.16
2023-05-23T06:45:20.366Z,99083.78
2023-05-23T06:47:52.016Z,99069.69
2023-05-23T06:50:33.181Z,99072.19
2023-05-23T06:53:07.282Z,99072.06
2023-05-23T06:55:36.989Z,99069.00
2023-05-23T06:58:14.500Z,99063.97
2023-05-23T07:00:43.078Z,99068.25
2023-05-23T07:03:23.968Z,99061.09
2023-05-23T07:05:53.788Z,99059.00
2023-05-23T07:08:26.910Z,99062.88
2023-05-23T07:11:06.840Z,99059.19
2023-05-23T07:14:03.662Z,99057.97
2023-05-23T07:17:08.588Z,99061.69
2023-05-23T07:19:47.790Z,99068.38
2023-05-23T07:22:51.748Z,99057.91
2023-05-23T07:25:32.353Z,99053.00
2023-05-23T07:28:02.945Z,99050.81
2023-05-23T07:30:40.648Z,99048.25
2023-05-23T07:33:12.560Z,99048.84
2023-05-23T07:35:42.892Z,99043.66
2023-05-23T07:38:17.101Z,99042.63
2023-05-23T07:40:55.655Z,99035.59
2023-05-23T07:43:32.736Z,99042.91
2023-05-23T07:46:03.503Z,99037.03
2023-05-23T07:48:33.125Z,99041.19
2023-05-23T07:51:04.087Z,99039.81
2023-05-23T07:53:42.255Z,99040.06
2023-05-23T07:56:17.646Z,99025.53
2023-05-23T07:58:58.174Z,99027.69
2023-05-23T08:01:30.003Z,99040.31
2023-05-23T08:04:05.277Z,99041.94
2023-05-23T08:06:52.133Z,99038.69
2023-05-23T08:09:42.526Z,99043.00
2023-05-23T08:12:18.131Z,99027.00
2023-05-23T08:14:52.074Z,99031.97
2023-05-23T08:17:40.130Z,99024.06
2023-05-23T08:20:19.160Z,99030.09
2023-05-23T08:22:49.282Z,99017.41
2023-05-23T08:25:19.989Z,99029.03
2023-05-23T08:27:52.104Z,99024.00
2023-05-23T08:30:59.680Z,99016.44
2023-05-23T08:33:29.214Z,99018.56
2023-05-23T08:36:01.282Z,99016.28
2023-05-23T08:38:32.668Z,99007.63
2023-05-23T08:41:30.399Z,99024.38
2023-05-23T08:44:10.235Z,99002.66
2023-05-23T08:46:52.792Z,99010.53
2023-05-23T08:49:39.837Z,99010.44
2023-05-23T08:52:11.711Z,99013.00
2023-05-23T08:54:44.379Z,99008.28
2023-05-23T08:57:19.589Z,99014.75
2023-05-23T09:00:06.332Z,99017.47
2023-05-23T09:02:35.059Z,99021.69
2023-05-23T09:08:06.343Z,99002.84
2023-05-23T09:10:38.405Z,99013.28
2023-05-23T09:13:19.927Z,99014.84
2023-05-23T09:16:08.611Z,99012.38
2023-05-23T09:18:45.423Z,98998.75
2023-05-23T09:21:25.292Z,99002.16
2023-05-23T09:24:06.347Z,99005.53
2023-05-23T09:26:39.089Z,99004.75
2023-05-23T09:29:07.595Z,98996.72
2023-05-23T09:31:40.851Z,98991.56
2023-05-23T09:34:19.631Z,98999.91
2023-05-23T09:36:48.856Z,99012.94
2023-05-23T09:39:20.568Z,99002.53
2023-05-23T09:41:50.357Z,99009.50
2023-05-23T09:44:24.815Z,99007.78
2023-05-23T09:46:56.118Z,99019.16
2023-05-23T09:49:25.441Z,99012.84
2023-05-23T09:52:08.714Z,99014.56
2023-05-23T09:54:41.030Z,99024.69
2023-05-23T09:57:12.055Z,99013.69
2023-05-23T09:59:42.920Z,99003.50
2023-05-23T10:02:14.304Z,99006.81
2023-05-23T10:04:53.268Z,98997.50
2023-05-23T10:07:28.001Z,99005.94
2023-05-23T10:09:59.242Z,98994.78
2023-05-23T10:12:48.332Z,99003.06
2023-05-23T10:15:24.018Z,99001.25
2023-05-23T10:18:08.712Z,99004.38
2023-05-23T10:20:40.551Z,98998.28
2023-05-23T10:23:12.452Z,99012.22
2023-05-23T10:25:49.734Z,98999.25
2023-05-23T10:28:20.474Z,98990.50
2023-05-23T10:30:51.389Z,98991.00
2023-05-23T10:33:31.876Z,98981.03
2023-05-23T10:36:07.226Z,98978.00
2023-05-23T10:38:45.662Z,98988.69
2023-05-23T10:41:20.101Z,98983.75
2023-05-23T10:43:55.793Z,98982.94
2023-05-23T10:46:27.451Z,98983.69
2023-05-23T10:49:08.465Z,98982.75
2023-05-23T10:51:42.031Z,98970.81
2023-05-23T10:54:13.139Z,98969.41
2023-05-23T10:56:42.452Z,98978.53
2023-05-23T10:59:21.515Z,98972.31
2023-05-23T11:01:57.647Z,98958.06
2023-05-23T11:04:28.526Z,98951.25
2023-05-23T11:06:58.926Z,98965.50
2023-05-23T11:09:27.119Z,98959.97
2023-05-23T11:12:08.388Z,98951.44
2023-05-23T11:15:01.145Z,98948.44
2023-05-23T11:17:36.458Z,98929.25
2023-05-23T11:20:15.806Z,98930.94
2023-05-23T11:22:55.890Z,98920.31
2023-05-23T11:25:43.056Z,98912.63
2023-05-23T11:28:20.596Z,98921.03
2023-05-23T11:30:57.903Z,98904.53
2023-05-23T11:33:27.346Z,98909.16
2023-05-23T11:36:01.076Z,98921.06
2023-05-23T11:38:35.153Z,98916.66
2023-05-23T11:41:04.430Z,98931.50
2023-05-23T11:43:36.509Z,98941.06
2023-05-23T11:46:11.140Z,98929.00
2023-05-23T11:48:53.402Z,98935.47
2023-05-23T11:51:26.594Z,98937.78
2023-05-23T11:54:03.102Z,98936.00
2023-05-23T11:56:32.421Z,98943.44
2023-05-23T11:59:02.461Z,98929.94
2023-05-23T12:01:33.297Z,98920.81
2023-05-23T12:04:13.861Z,98909.38
2023-05-23T12:06:48.505Z,98918.59
2023-05-23T12:09:23.086Z,98907.56
2023-05-23T12:12:00.834Z,98904.81
2023-05-23T12:14:31.360Z,98902.81
2023-05-23T12:17:02.269Z,98896.25
2023-05-23T12:19:31.205Z,98893.41
2023-05-23T12:22:09.792Z,98904.97
2023-05-23T12:24:46.725Z,98908.97
2023-05-23T12:27:19.425Z,98908.78
2023-05-23T12:29:54.064Z,98909.66
2023-05-23T12:32:26.858Z,98913.19
2023-05-23T12:34:58.282Z,98912.34
2023-05-23T12:37:39.300Z,98915.34
2023-05-23T12:40:20.781Z,98916.13
2023-05-23T12:42:53.679Z,98920.00
2023-05-23T12:45:25.114Z,98913.31
2023-05-23T12:47:54.857Z,98902.75
2023-05-23T12:50:24.580Z,98915.31
2023-05-23T12:52:59.909Z,98909.47
2023-05-23T12:55:30.505Z,98911.09
2023-05-23T12:58:00.165Z,98917.31
2023-05-23T13:00:32.524Z,98912.31
2023-05-23T13:03:09.233Z,98915.56
2023-05-23T13:05:39.972Z,98914.22
2023-05-23T13:08:24.238Z,98899.34
2023-05-23T13:10:59.896Z,98902.03
2023-05-23T13:13:32.302Z,98884.84
2023-05-23T13:16:01.654Z,98880.69
2023-05-23T13:18:30.873Z,98884.28
2023-05-23T13:21:02.432Z,98890.13
2023-05-23T13:23:46.558Z,98894.00
2023-05-23T13:26:23.908Z,98893.03
2023-05-23T13:28:53.234Z,98892.91
2023-05-23T13:31:23.539Z,98883.34
2023-05-23T13:33:55.414Z,98892.53
2023-05-23T13:36:30.239Z,98900.03
2023-05-23T13:39:02.353Z,98903.88
2023-05-23T13:41:34.511Z,98907.31
2023-05-23T13:44:05.976Z,98919.53
2023-05-23T13:46:44.034Z,98921.25
2023-05-23T13:49:16.688Z,98938.69
2023-05-23T13:51:48.212Z,98946.91
2023-05-23T13:54:20.164Z,98932.69
2023-05-23T13:56:50.810Z,98945.97
2023-05-23T13:59:21.486Z,98981.28
2023-05-23T14:01:51.248Z,98961.53
2023-05-23T14:04:21.283Z,98969.06
2023-05-23T14:06:57.254Z,98975.88
2023-05-23T14:09:30.844Z,98967.16
2023-05-23T14:11:59.086Z,98980.91
2023-05-23T14:14:30.616Z,98987.06
2023-05-23T14:16:59.580Z,99002.44
2023-05-23T14:19:36.447Z,99026.25
2023-05-23T14:22:05.896Z,99042.00
2023-05-23T14:24:36.510Z,99026.63
2023-05-23T14:27:10.214Z,99013.28
2023-05-23T14:29:46.270Z,99019.56
2023-05-23T14:32:18.119Z,99020.34
2023-05-23T14:34:55.455Z,99007.88
2023-05-23T14:37:24.356Z,99007.63
2023-05-23T14:40:11.197Z,99009.53
2023-05-23T14:42:40.955Z,99017.03
2023-05-23T14:45:18.555Z,99007.69
2023-05-23T14:47:48.554Z,99007.66
2023-05-23T14:50:31.843Z,99024.63
2023-05-23T14:53:00.761Z,99027.47
2023-05-23T14:55:34.957Z,99037.38
2023-05-23T14:58:03.637Z,99046.78
2023-05-23T15:00:36.983Z,99065.56
2023-05-23T15:03:07.880Z,99049.31
2023-05-23T15:05:38.492Z,99076.16
2023-05-23T15:08:07.586Z,99078.94
2023-05-23T15:10:43.537Z,99111.25
2023-05-23T15:13:12.436Z,99111.19
2023-05-23T15:15:44.268Z,99125.94
2023-05-23T15:18:31.525Z,99128.75
2023-05-23T15:21:05.857Z,99140.50
2023-05-23T15:23:34.414Z,99153.00
2023-05-23T15:26:11.188Z,99156.06
2023-05-23T15:28:48.610Z,99160.66
2023-05-23T15:31:22.521Z,99180.59
2023-05-23T15:33:54.441Z,99172.84
2023-05-23T15:36:33.176Z,99176.34
2023-05-23T15:39:06.209Z,99179.44
2023-05-23T15:41:53.035Z,99181.69
2023-05-23T15:44:22.558Z,99198.25
2023-05-23T15:47:00.833Z,99203.50
2023-05-23T15:49:32.387Z,99194.91
2023-05-23T15:52:02.781Z,99182.47
2023-05-23T15:54:36.433Z,99193.44
2023-05-23T15:57:17.869Z,99188.97
2023-05-23T15:59:54.338Z,99196.47
2023-05-23T16:02:26.712Z,99197.63
2023-05-23T16:04:57.861Z,99194.88
2023-05-23T16:07:29.046Z,99198.53
2023-05-23T16:09:57.975Z,99199.63
2023-05-23T16:12:35.653Z,99194.38
2023-05-23T16:15:05.783Z,99194.22
2023-05-23T16:17:34.974Z,99193.31
2023-05-23T16:20:04.627Z,99207.50
2023-05-23T16:22:35.616Z,99206.94
2023-05-23T16:25:06.833Z,99207.72
2023-05-23T16:27:50.323Z,99203.22
2023-05-23T16:30:19.543Z,99212.34
2023-05-23T16:32:53.298Z,99213.59
2023-05-23T16:35:27.510Z,99210.31
2023-05-23T16:38:02.134Z,99208.63
2023-05-23T16:40:43.738Z,99191.34
2023-05-23T16:43:22.102Z,99208.81
2023-05-23T16:45:53.859Z,99200.09
2023-05-23T16:48:24.245Z,99206.13
2023-05-23T16:51:01.322Z,99205.25
2023-05-23T16:53:31.609Z,99190.13
2023-05-23T16:56:01.608Z,99207.13
2023-05-23T16:58:39.397Z,99197.81
2023-05-23T17:01:13.920Z,99206.97
2023-05-23T17:03:43.216Z,99185.94
2023-05-23T17:06:20.398Z,99198.00
2023-05-23T17:08:50.266Z,99202.56
2023-05-23T17:11:20.449Z,99193.81
2023-05-23T17:14:04.985Z,99199.22
2023-05-23T17:16:43.381Z,99198.81
2023-05-23T17:19:12.574Z,99190.50
2023-05-23T17:21:44.593Z,99192.16
2023-05-23T17:24:21.259Z,99189.69
2023-05-23T17:26:54.064Z,99182.97
2023-05-23T17:29:27.783Z,99169.03
2023-05-23T17:31:59.863Z,99187.34
2023-05-23T17:34:29.222Z,99188.78
2023-05-23T17:37:01.594Z,99188.75
2023-05-23T17:39:33.290Z,99187.56
2023-05-23T17:42:06.796Z,99189.41
2023-05-23T17:44:48.095Z,99181.34
2023-05-23T17:47:23.101Z,99167.59
2023-05-23T17:49:52.638Z,99175.72
2023-05-23T17:52:25.728Z,99168.03
2023-05-23T17:54:55.504Z,99161.97
2023-05-23T17:57:30.649Z,99156.81
2023-05-23T18:00:01.714Z,99173.88
2023-05-23T18:02:34.181Z,99171.16
2023-05-23T18:05:05.740Z,99177.56
2023-05-23T18:07:37.432Z,99178.41
2023-05-23T18:10:14.114Z,99172.38
2023-05-23T18:12:44.504Z,99177.00
2023-05-23T18:15:23.894Z,99175.31
2023-05-23T18:17:59.066Z,99174.69
2023-05-23T18:20:36.401Z,99176.53
2023-05-23T18:23:05.697Z,99182.56
2023-05-23T18:25:46.901Z,99186.56
2023-05-23T18:28:20.797Z,99189.25
2023-05-23T18:30:52.338Z,99187.41
2023-05-23T18:33:22.487Z,99193.00
2023-05-23T18:36:01.744Z,99202.38
2023-05-23T18:38:32.150Z,99189.47
2023-05-23T18:41:15.250Z,99202.56
2023-05-23T18:43:46.773Z,99204.84
2023-05-23T18:46:35.149Z,99211.56
2023-05-23T18:49:07.966Z,99220.88
2023-05-23T18:51:38.326Z,99227.38
2023-05-23T18:54:10.885Z,99211.34
2023-05-23T18:56:49.975Z,99228.59
2023-05-23T18:59:21.842Z,99232.94
2023-05-23T19:01:54.238Z,99229.63
2023-05-23T19:04:29.385Z,99220.91
2023-05-23T19:07:03.509Z,99222.56
2023-05-23T19:09:42.574Z,99224.44
2023-05-23T19:12:12.874Z,99225.91
2023-05-23T19:14:51.539Z,99236.91
2023-05-23T19:17:23.552Z,99223.38
2023-05-23T19:19:56.198Z,99222.97
2023-05-23T19:22:50.469Z,99232.75
2023-05-23T19:25:24.499Z,99234.94
2023-05-23T19:27:56.888Z,99232.72
2023-05-23T19:30:40.730Z,99238.88
2023-05-23T19:33:17.174Z,99228.91
2023-05-23T19:35:57.412Z,99232.09
2023-05-23T19:38:27.435Z,99231.00
2023-05-23T19:40:56.500Z,99226.91
2023-05-23T19:43:35.826Z,99228.16
2023-05-23T19:46:05.592Z,99236.31
2023-05-23T19:48:38.108Z,99237.06
2023-05-23T19:51:12.491Z,99238.56
2023-05-23T19:53:45.560Z,99242.09
2023-05-23T19:56:20.973Z,99253.34
2023-05-23T19:59:02.399Z,99255.00
2023-05-23T20:01:42.123Z,99256.34
2023-05-23T20:04:18.546Z,99249.97
2023-05-23T20:06:49.096Z,99246.41
2023-05-23T20:09:26.751Z,99251.69
2023-05-23T20:12:03.826Z,99257.75
2023-05-23T20:14:34.887Z,99261.16
2023-05-23T20:17:04.932Z,99259.84
2023-05-23T20:19:41.012Z,99259.75
2023-05-23T20:22:12.575Z,99258.03
2023-05-23T20:24:44.542Z,99258.03
2023-05-23T20:27:18.751Z,99265.47
2023-05-23T20:29:55.791Z,99256.59
2023-05-23T20:32:29.542Z,99259.09
2023-05-23T20:35:15.328Z,99271.66
2023-05-23T20:37:52.773Z,99274.28
2023-05-23T20:40:28.852Z,99264.91
2023-05-23T20:43:04.910Z,99266.97
2023-05-23T20:45:37.342Z,99260.06
2023-05-23T20:48:09.254Z,99267.97
2023-05-23T20:50:42.352Z,99268.66
2023-05-23T20:53:20.847Z,99280.34
2023-05-23T20:56:06.855Z,99285.78
2023-05-23T20:58:46.390Z,99293.22
2023-05-23T21:01:16.644Z,99292.25
2023-05-23T21:03:51.241Z,99286.72
2023-05-23T21:06:23.603Z,99297.72
2023-05-23T21:09:09.013Z,99295.09
2023-05-23T21:12:33.930Z,99300.34
2023-05-23T21:15:20.933Z,99297.78
2023-05-23T21:17:52.822Z,99301.09
2023-05-23T21:20:28.271Z,99299.06
2023-05-23T21:23:00.171Z,99307.06
2023-05-23T21:25:40.099Z,99307.69
2023-05-23T21:28:13.918Z,99307.00
2023-05-23T21:30:49.390Z,99315.38
2023-05-23T21:33:18.393Z,99314.50
2023-05-23T21:35:57.234Z,99315.50
2023-05-23T21:38:30.174Z,99328.22
2023-05-23T21:41:02.062Z,99335.31
2023-05-23T21:43:38.163Z,99328.66
2023-05-23T21:46:07.032Z,99325.19
2023-05-23T21:48:37.989Z,99347.75
2023-05-23T21:51:18.474Z,99348.59
2023-05-23T21:53:55.470Z,99350.25
2023-05-23T21:56:26.353Z,99356.91
2023-05-23T21:58:56.879Z,99352.47
2023-05-23T22:01:27.096Z,99362.22
2023-05-23T22:03:59.021Z,99365.00
2023-05-23T22:06:35.241Z,99367.72
2023-05-23T22:09:19.251Z,99362.97
2023-05-23T22:11:53.711Z,99376.91
2023-05-23T22:14:22.058Z,99369.81
2023-05-23T22:16:55.426Z,99376.41
2023-05-23T22:19:30.092Z,99379.97
2023-05-23T22:21:59.255Z,99372.59
2023-05-23T22:24:39.310Z,99373.72
2023-05-23T22:27:10.083Z,99392.22
2023-05-23T22:29:41.724Z,99378.72
2023-05-23T22:32:12.689Z,99395.22
2023-05-23T22:34:48.819Z,99387.50
2023-05-23T22:37:26.685Z,99392.09
2023-05-23T22:39:58.886Z,99391.94
2023-05-23T22:42:36.568Z,99379.31
2023-05-23T22:45:10.477Z,99387.44
2023-05-23T22:47:42.942Z,99383.59
2023-05-23T22:50:17.131Z,99393.13
2023-05-23T22:52:48.365Z,99387.16
2023-05-23T22:55:19.849Z,99391.25
2023-05-23T22:57:50.081Z,99387.25
2023-05-23T23:00:19.799Z,99379.81
2023-05-23T23:02:52.857Z,99386.44
2023-05-23T23:05:23.793Z,99381.41
2023-05-23T23:08:00.835Z,99399.88
2023-05-23T23:10:33.582Z,99390.25
2023-05-23T23:13:05.774Z,99393.88
2023-05-23T23:15:36.896Z,99380.44
2023-05-23T23:18:07.720Z,99385.72
2023-05-23T23:20:39.503Z,99396.38
2023-05-23T23:23:08.028Z,99395.53
2023-05-23T23:25:37.829Z,99399.00
2023-05-23T23:28:13.819Z,99399.22
2023-05-23T23:30:44.632Z,99401.63
2023-05-23T23:33:22.422Z,99406.91
2023-05-23T23:35:56.914Z,99415.13
2023-05-23T23:38:26.520Z,99415.16
2023-05-23T23:41:03.599Z,99420.47
2023-05-23T23:43:34.326Z,99410.63
2023-05-23T23:46:04.175Z,99419.19
2023-05-23T23:48:33.795Z,99417.63
2023-05-23T23:51:08.527Z,99420.75
2023-05-23T23:53:48.028Z,99419.97
2023-05-23T23:56:24.724Z,99414.25
2023-05-23T23:58:58.807Z,99417.63
